LGAL/AXD METAR and TAF weather

Enter ICAO airport designator
Station Type Date Time Source
LGAL METAR 2021/01/27 13:50 UTC NOAA

LGAL 271350Z 02006KT 9999 FEW012 BKN025 05/M02 Q1006


Station Type Date Time Source
LGAL Decoded METAR 2021/01/27 13:50 UTC NOAA

Alexandroupoli Airport , Greece (LGAL) 40-51N 025-55E 3M
Jan 27, 2021 - 08:50 AM EST / 2021.01.27 1350 UTC
Wind: from the NNE (020 degrees) at 7 MPH (6 KT):0
Visibility: greater than 7 mile(s):0
Sky conditions: mostly cloudy
Temperature: 41 F (5 C)
Dew Point: 28 F (-2 C)
Relative Humidity: 60%
Pressure (altimeter): 29.71 in. Hg (1006 hPa)
ob: LGAL 271350Z 02006KT 9999 FEW012 BKN025 05/M02 Q1006
cycle: 14

Station Type Date Time Source
LGAL TAF 2012/09/21 03:06 UTC NOAA

TAF TAF LGAL 210200Z 2103/2115 03012G22KT 9999 FEW020 SCT070 PROB30
TEMPO 2103/2106 6000 RA SCT015 BKN030 PROB30

Example: see airport list